Boone Observed Data For Previous 48 Hours

Caption
Day and Hour Reservoir Elevation (behind dam)* Tailwater Elevation (below dam)* Average Hourly Discharge*
5/24/2019 2 AM EDT 1,353.36 1,260.16 0
5/24/2019 3 AM EDT 1,353.42 1,260.15 0
5/24/2019 4 AM EDT 1,353.49 1,260.15 0
5/24/2019 5 AM EDT 1,353.53 1,260.14 0
5/24/2019 6 AM EDT 1,353.58 1,260.14 0
5/24/2019 7 AM EDT 1,353.63 1,260.14 0
5/24/2019 8 AM EDT 1,353.67 1,260.14 0
5/24/2019 9 AM EDT 1,353.72 1,260.14 0
5/24/2019 10 AM EDT 1,353.76 1,260.14 0
5/24/2019 11 AM EDT 1,353.76 1,262.43 204
5/24/2019 12 PM EDT 1,353.72 1,262.95 3,496
5/24/2019 1 PM EDT 1,353.64 1,263.14 3,509
5/24/2019 2 PM EDT 1,353.59 1,263.12 3,437
5/24/2019 3 PM EDT 1,353.51 1,262.90 3,369
5/24/2019 4 PM EDT 1,353.45 1,262.93 3,302
5/24/2019 5 PM EDT 1,353.35 1,263.11 3,202
5/24/2019 6 PM EDT 1,353.31 1,263.21 3,287
5/24/2019 7 PM EDT 1,353.22 1,263.10 3,283
5/24/2019 8 PM EDT 1,353.16 1,263.01 3,396
5/24/2019 9 PM EDT 1,353.10 1,262.95 3,306
5/24/2019 10 PM EDT 1,353.12 1,260.93 49
5/24/2019 11 PM EDT 1,353.20 1,260.51 0
5/25/2019 12 AM EDT 1,353.28 1,260.40 0
5/25/2019 1 AM EDT 1,353.37 1,260.39 0
5/25/2019 2 AM EDT 1,353.45 1,260.25 0
5/25/2019 3 AM EDT 1,353.50 1,260.28 0
5/25/2019 4 AM EDT 1,353.55 1,260.32 0
5/25/2019 5 AM EDT 1,353.60 1,260.19 0
5/25/2019 6 AM EDT 1,353.64 1,260.18 0
5/25/2019 7 AM EDT 1,353.69 1,260.18 0
5/25/2019 8 AM EDT 1,353.71 1,263.18 999
5/25/2019 9 AM EDT 1,353.64 1,263.18 3,383
5/25/2019 10 AM EDT 1,353.57 1,263.23 3,450
5/25/2019 11 AM EDT 1,353.48 1,263.13 3,436
5/25/2019 12 PM EDT 1,353.50 1,260.65 61
5/25/2019 1 PM EDT 1,353.55 1,260.56 0
5/25/2019 2 PM EDT 1,353.60 1,260.26 0
5/25/2019 3 PM EDT 1,353.64 1,260.26 0
5/25/2019 4 PM EDT 1,353.68 1,260.30 0
5/25/2019 5 PM EDT 1,353.68 1,262.45 204
5/25/2019 6 PM EDT 1,353.64 1,263.15 3,294
5/25/2019 7 PM EDT 1,353.61 1,263.19 3,342
5/25/2019 8 PM EDT 1,353.61 1,263.17 3,373
5/25/2019 9 PM EDT 1,353.62 1,263.20 3,525
5/25/2019 10 PM EDT 1,353.63 1,263.19 3,365
5/25/2019 11 PM EDT 1,353.62 1,263.18 3,441
5/26/2019 12 AM EDT 1,353.60 1,263.12 3,295
5/26/2019 1 AM EDT 1,353.65 1,260.80 66
5/26/2019 2 AM EDT 1,353.73 1,260.82 0
5/26/2019 3 AM EDT 1,353.77 1,260.25 0
5/26/2019 4 AM EDT 1,353.82 1,260.25 0
5/26/2019 5 AM EDT 1,353.81 1,262.48 198
5/26/2019 6 AM EDT 1,353.79 1,262.87 3,094
5/26/2019 7 AM EDT 1,353.74 1,262.86 3,017
5/26/2019 8 AM EDT 1,353.67 1,263.18 3,449
5/26/2019 9 AM EDT 1,353.68 1,260.86 69
5/26/2019 10 AM EDT 1,353.75 1,260.76 0
5/26/2019 11 AM EDT 1,353.78 1,260.72 0
5/26/2019 12 PM EDT 1,353.82 1,260.34 0
5/26/2019 1 PM EDT 1,353.82 1,262.58 206
5/26/2019 2 PM EDT 1,353.77 1,262.92 3,404
5/26/2019 3 PM EDT 1,353.73 1,262.98 3,184
5/26/2019 4 PM EDT 1,353.64 1,263.24 3,173
5/26/2019 5 PM EDT 1,353.57 1,263.17 3,329
5/26/2019 6 PM EDT 1,353.50 1,263.16 3,323
5/26/2019 7 PM EDT 1,353.43 1,263.19 3,404

Elevations are in feet above sea level. Discharges are in cubic feet per second and are reported at the end of the hour.